Time;durP1;ratioP1;P1;durP2;ratioP2;P2;SDS_P1;SDS_P2;PMS_P1;PMS_P2;Temp;Humidity;BMP_temperature;BMP_pressure;BME280_temperature;BME280_humidity;BME280_pressure;Samples;Min_cycle;Max_cycle;Signal;HPM_P1;HPM_P2
2020/12/03 00:00:41;;;;;;;1.20;1.10;;;1.30;98.00;;;;;;5071160;28;20839;-64
2020/12/03 00:03:14;;;;;;;1.30;1.30;;;1.30;98.00;;;;;;5069926;28;20908;-63
2020/12/03 00:05:42;;;;;;;1.20;1.10;;;1.20;98.00;;;;;;5071134;28;20482;-63
2020/12/03 00:08:10;;;;;;;1.40;1.30;;;1.30;98.00;;;;;;5070990;28;20454;-63
2020/12/03 00:10:37;;;;;;;5.10;1.80;;;1.30;98.00;;;;;;5074961;28;20489;-63
2020/12/03 00:13:12;;;;;;;2.17;1.10;;;1.40;98.00;;;;;;5073357;28;20524;-63
2020/12/03 00:15:38;;;;;;;1.93;1.73;;;1.50;98.00;;;;;;5074803;28;20826;-64
2020/12/03 00:18:06;;;;;;;2.27;1.70;;;1.60;98.00;;;;;;5073453;28;20464;-63
2020/12/03 00:20:35;;;;;;;3.63;1.87;;;1.50;98.00;;;;;;5074958;28;20463;-63
2020/12/03 00:23:04;;;;;;;1.23;1.10;;;1.50;98.00;;;;;;5072807;28;20454;-63
2020/12/03 00:25:30;;;;;;;3.43;2.03;;;1.40;98.00;;;;;;5074314;28;20483;-63
2020/12/03 00:27:57;;;;;;;2.33;2.03;;;1.40;98.00;;;;;;5072290;28;20510;-63
2020/12/03 00:30:25;;;;;;;1.20;1.00;;;1.30;98.00;;;;;;5073985;28;20472;-62
2020/12/03 00:32:51;;;;;;;1.23;1.17;;;1.40;98.00;;;;;;5074018;28;20885;-63
2020/12/03 00:35:20;;;;;;;1.53;1.43;;;1.40;98.00;;;;;;5072734;28;20509;-63
2020/12/03 00:37:48;;;;;;;1.97;1.83;;;1.30;98.00;;;;;;5074331;28;20782;-63
2020/12/03 00:40:15;;;;;;;1.20;1.17;;;1.40;98.00;;;;;;5072641;28;20454;-63
2020/12/03 00:42:44;;;;;;;2.57;2.40;;;1.30;98.00;;;;;;5074402;28;20949;-63
2020/12/03 00:45:12;;;;;;;1.20;1.10;;;1.30;98.00;;;;;;5072893;28;20487;-63
2020/12/03 00:47:40;;;;;;;1.20;1.00;;;1.40;98.00;;;;;;5074714;28;20456;-63
2020/12/03 00:50:10;;;;;;;4.33;3.00;;;1.60;98.00;;;;;;5073017;28;20451;-63
2020/12/03 00:52:37;;;;;;;1.70;1.43;;;1.60;98.00;;;;;;5074627;28;20497;-63
2020/12/03 00:55:06;;;;;;;1.30;1.10;;;1.50;98.00;;;;;;5071791;28;20864;-63
2020/12/03 00:57:34;;;;;;;2.53;1.53;;;1.20;98.00;;;;;;5074336;28;20459;-63
2020/12/03 01:00:00;;;;;;;1.53;1.47;;;1.20;98.00;;;;;;5072307;28;20509;-63
2020/12/03 01:02:27;;;;;;;1.87;1.60;;;1.20;98.00;;;;;;5074260;28;20451;-63
2020/12/03 01:04:53;;;;;;;1.20;1.10;;;1.20;98.00;;;;;;5072517;28;20523;-64
2020/12/03 01:07:20;;;;;;;1.40;1.23;;;1.20;98.00;;;;;;5073987;28;20451;-63
2020/12/03 01:09:46;;;;;;;1.43;1.30;;;1.30;98.00;;;;;;5072625;28;20455;-63
2020/12/03 01:12:14;;;;;;;1.20;0.90;;;1.20;98.00;;;;;;5073838;28;20452;-63
2020/12/03 01:14:40;;;;;;;1.53;1.30;;;1.40;98.00;;;;;;5072193;28;20934;-65
2020/12/03 01:17:10;;;;;;;8.23;1.93;;;1.40;98.00;;;;;;5073994;28;20485;-63
2020/12/03 01:19:38;;;;;;;1.10;1.00;;;1.50;98.00;;;;;;5071371;28;20509;-63
2020/12/03 01:22:04;;;;;;;1.30;1.17;;;1.50;98.00;;;;;;5073832;28;20456;-63
2020/12/03 01:24:31;;;;;;;1.20;1.10;;;1.50;98.00;;;;;;5072308;28;20886;-63
2020/12/03 01:26:58;;;;;;;1.97;1.87;;;1.50;98.00;;;;;;5073691;28;20548;-62
2020/12/03 01:29:26;;;;;;;1.50;1.20;;;1.40;98.00;;;;;;5071917;28;20516;-63
2020/12/03 01:31:53;;;;;;;1.97;1.50;;;1.30;98.00;;;;;;5073606;28;20509;-63
2020/12/03 01:34:20;;;;;;;1.90;1.50;;;1.40;98.00;;;;;;5071659;28;20508;-63
2020/12/03 01:36:49;;;;;;;1.67;1.60;;;1.30;98.00;;;;;;5073329;28;20957;-64
2020/12/03 01:39:15;;;;;;;2.80;1.73;;;1.10;98.00;;;;;;5071445;28;20486;-63
2020/12/03 01:41:42;;;;;;;1.20;1.20;;;1.10;98.00;;;;;;5073113;28;20458;-63
2020/12/03 01:44:09;;;;;;;2.33;1.93;;;1.00;98.00;;;;;;5071467;28;20931;-64
2020/12/03 01:46:37;;;;;;;1.30;1.20;;;0.90;98.00;;;;;;5073043;28;20487;-63
2020/12/03 01:49:06;;;;;;;1.50;1.43;;;0.90;98.00;;;;;;5072309;28;20451;-64
2020/12/03 01:51:36;;;;;;;2.90;1.67;;;1.00;98.00;;;;;;5072799;28;20454;-63
2020/12/03 01:54:06;;;;;;;2.07;1.60;;;0.90;98.00;;;;;;5073126;28;20455;-62
2020/12/03 01:56:52;;;;;;;1.20;0.90;;;0.80;98.00;;;;;;5071964;28;20455;-63
2020/12/03 01:59:20;;;;;;;1.30;1.20;;;0.70;98.00;;;;;;5071227;28;20452;-63
2020/12/03 02:01:47;;;;;;;1.30;1.10;;;0.80;98.00;;;;;;5072944;28;20940;-63
2020/12/03 02:04:14;;;;;;;2.27;2.13;;;0.80;98.00;;;;;;5071874;28;20474;-63
2020/12/03 02:06:42;;;;;;;2.53;2.33;;;0.90;98.00;;;;;;5072039;28;20523;-63
2020/12/03 02:09:11;;;;;;;1.67;1.20;;;0.90;98.00;;;;;;5072659;28;20453;-63
2020/12/03 02:11:38;;;;;;;4.03;2.77;;;0.90;98.00;;;;;;5071227;28;20512;-63
2020/12/03 02:14:07;;;;;;;1.70;1.67;;;0.80;98.00;;;;;;5072636;28;21001;-63
2020/12/03 02:16:36;;;;;;;1.10;0.90;;;0.90;98.00;;;;;;5071075;28;21002;-63
2020/12/03 02:19:14;;;;;;;1.20;1.00;;;1.00;98.00;;;;;;5072591;28;20452;-63
2020/12/03 02:21:43;;;;;;;1.13;1.03;;;1.20;98.00;;;;;;5070125;28;20455;-63
2020/12/03 02:24:11;;;;;;;1.20;1.00;;;1.30;98.00;;;;;;5072485;28;20455;-63
2020/12/03 02:26:37;;;;;;;1.40;1.13;;;1.20;98.00;;;;;;5070564;28;20965;-63
2020/12/03 02:29:04;;;;;;;1.90;1.43;;;1.20;98.00;;;;;;5072562;28;20497;-63
2020/12/03 02:31:31;;;;;;;1.17;1.00;;;1.10;98.00;;;;;;5069252;28;20954;-63
2020/12/03 02:33:57;;;;;;;3.47;1.93;;;1.20;98.00;;;;;;5072246;28;20454;-63
2020/12/03 02:36:24;;;;;;;1.43;1.33;;;1.20;98.00;;;;;;5070391;28;20448;-63
2020/12/03 02:38:52;;;;;;;1.43;1.37;;;1.00;98.00;;;;;;5072573;28;20911;-63
2020/12/03 02:41:19;;;;;;;1.83;1.43;;;1.00;98.00;;;;;;5070323;28;20447;-63
2020/12/03 02:43:45;;;;;;;1.50;1.43;;;1.20;98.00;;;;;;5072568;28;20882;-63
2020/12/03 02:46:12;;;;;;;1.67;1.20;;;1.30;98.00;;;;;;5070527;28;20861;-64
2020/12/03 02:48:38;;;;;;;1.40;1.37;;;1.20;98.00;;;;;;5072068;28;20282;-63
2020/12/03 02:51:05;;;;;;;1.20;1.10;;;1.20;98.00;;;;;;5070412;28;20887;-63
2020/12/03 02:53:31;;;;;;;1.97;1.67;;;1.10;98.00;;;;;;5072261;28;20459;-63
2020/12/03 02:55:59;;;;;;;3.03;2.83;;;1.10;98.00;;;;;;5070618;28;20524;-63
2020/12/03 02:58:25;;;;;;;3.20;2.60;;;1.10;98.00;;;;;;5072004;28;20938;-63
2020/12/03 03:00:52;;;;;;;1.20;1.10;;;1.00;98.00;;;;;;5070536;28;20450;-63
2020/12/03 03:03:19;;;;;;;1.10;1.00;;;1.00;98.00;;;;;;5072130;28;20451;-63
2020/12/03 03:05:45;;;;;;;1.23;1.07;;;1.10;98.00;;;;;;5070313;28;20476;-63
2020/12/03 03:08:11;;;;;;;1.20;1.20;;;1.20;98.00;;;;;;5071988;28;20851;-63
2020/12/03 03:10:38;;;;;;;1.20;1.20;;;1.20;98.00;;;;;;5070099;28;20509;-63
2020/12/03 03:13:05;;;;;;;1.33;1.27;;;1.40;98.00;;;;;;5070861;28;21050;-63
2020/12/03 03:15:32;;;;;;;1.27;1.23;;;1.50;98.00;;;;;;5069586;28;20454;-63
2020/12/03 03:17:58;;;;;;;1.47;1.10;;;1.60;98.00;;;;;;5071834;28;20480;-63
2020/12/03 03:20:25;;;;;;;1.20;1.00;;;1.70;98.00;;;;;;5069978;28;20515;-63
2020/12/03 03:22:51;;;;;;;1.20;1.10;;;1.80;98.00;;;;;;5071456;28;20517;-62
2020/12/03 03:25:18;;;;;;;1.87;1.77;;;1.80;98.00;;;;;;5071224;28;20506;-64
2020/12/03 03:27:44;;;;;;;1.30;1.20;;;1.80;98.00;;;;;;5070374;28;20863;-62
2020/12/03 03:30:11;;;;;;;2.87;2.43;;;1.90;98.00;;;;;;5071549;28;20921;-63
2020/12/03 03:32:38;;;;;;;1.40;1.30;;;1.90;98.00;;;;;;5069879;28;20456;-64
2020/12/03 03:35:06;;;;;;;1.20;1.13;;;2.00;98.00;;;;;;5071672;28;20520;-63
2020/12/03 03:37:33;;;;;;;1.20;1.20;;;1.80;98.00;;;;;;5070070;28;20451;-63
2020/12/03 03:40:01;;;;;;;2.17;1.97;;;1.80;98.00;;;;;;5071494;28;20456;-63
2020/12/03 03:42:28;;;;;;;1.57;1.50;;;1.80;98.00;;;;;;5070199;28;20459;-63
2020/12/03 03:44:54;;;;;;;1.63;1.37;;;1.80;98.00;;;;;;5075690;28;20515;-64
2020/12/03 03:47:22;;;;;;;1.33;1.30;;;1.90;98.00;;;;;;5074108;28;20840;-63
2020/12/03 03:49:48;;;;;;;2.63;1.83;;;1.90;98.00;;;;;;5075593;28;21007;-63
2020/12/03 03:52:15;;;;;;;1.20;1.00;;;2.00;98.00;;;;;;5073685;28;20833;-64
2020/12/03 03:54:41;;;;;;;1.40;1.30;;;2.10;98.00;;;;;;5075334;28;20842;-63
2020/12/03 03:57:08;;;;;;;1.30;1.10;;;2.10;98.00;;;;;;5073564;28;20552;-63
2020/12/03 03:59:34;;;;;;;2.07;1.93;;;2.00;98.00;;;;;;5075183;28;20446;-62
2020/12/03 04:02:01;;;;;;;1.20;1.00;;;1.90;98.00;;;;;;5073933;28;20811;-63
2020/12/03 04:04:28;;;;;;;1.60;1.50;;;1.80;98.00;;;;;;5075148;28;20837;-63
2020/12/03 04:06:54;;;;;;;1.30;1.30;;;1.80;98.00;;;;;;5073064;28;20555;-63
2020/12/03 04:09:21;;;;;;;1.30;1.23;;;1.60;98.00;;;;;;5074933;28;20462;-62
2020/12/03 04:11:47;;;;;;;6.10;1.63;;;1.50;98.00;;;;;;5073378;28;20463;-63
2020/12/03 04:14:15;;;;;;;1.60;1.40;;;1.50;98.00;;;;;;5074916;28;20457;-64
2020/12/03 04:16:41;;;;;;;1.30;1.10;;;1.50;98.00;;;;;;5073304;28;20504;-63
2020/12/03 04:19:08;;;;;;;1.93;1.83;;;1.50;98.00;;;;;;5075115;28;20511;-63
2020/12/03 04:21:37;;;;;;;1.20;1.20;;;1.50;98.00;;;;;;5073129;28;20482;-63
2020/12/03 04:24:04;;;;;;;2.13;1.60;;;1.60;98.00;;;;;;5074552;28;20455;-63
2020/12/03 04:26:31;;;;;;;1.40;1.20;;;1.60;98.00;;;;;;5073048;28;20856;-63
2020/12/03 04:28:57;;;;;;;1.17;1.00;;;1.80;98.00;;;;;;5075013;28;20504;-63
2020/12/03 04:31:24;;;;;;;1.87;1.73;;;1.90;98.00;;;;;;5072998;28;20460;-63
2020/12/03 04:33:50;;;;;;;1.20;1.10;;;1.80;98.00;;;;;;5075108;28;20517;-63
2020/12/03 04:36:17;;;;;;;1.20;1.20;;;1.90;98.00;;;;;;5074125;28;20456;-64
2020/12/03 04:38:44;;;;;;;2.60;1.60;;;1.60;98.00;;;;;;5073566;28;20552;-64
2020/12/03 04:41:11;;;;;;;1.77;1.60;;;1.80;98.00;;;;;;5074893;28;20449;-65
2020/12/03 04:43:42;;;;;;;2.00;1.93;;;1.90;98.00;;;;;;5073144;28;20493;-63
2020/12/03 04:46:25;;;;;;;4.20;2.90;;;2.00;98.00;;;;;;5074635;28;20512;-64
2020/12/03 04:49:23;;;;;;;2.70;2.00;;;1.90;98.00;;;;;;5073072;28;20459;-63
2020/12/03 04:52:41;;;;;;;1.10;0.90;;;1.60;98.00;;;;;;5072924;28;20958;-63
2020/12/03 04:55:19;;;;;;;1.57;1.30;;;1.40;98.00;;;;;;5072942;28;20463;-63
2020/12/03 04:57:50;;;;;;;1.50;1.37;;;1.60;98.00;;;;;;5072441;28;20492;-63
2020/12/03 05:00:32;;;;;;;1.10;1.00;;;1.50;98.00;;;;;;5074047;28;20447;-62
2020/12/03 05:03:39;;;;;;;2.10;1.63;;;1.40;98.00;;;;;;5072685;28;20453;-62
2020/12/03 05:06:24;;;;;;;1.30;1.23;;;1.30;98.00;;;;;;5073983;28;20479;-63
2020/12/03 05:09:00;;;;;;;1.20;1.20;;;1.30;98.00;;;;;;5072539;28;20525;-64
2020/12/03 05:11:33;;;;;;;1.90;1.53;;;1.20;98.00;;;;;;5074018;28;20989;-63
2020/12/03 05:14:03;;;;;;;1.20;1.13;;;1.20;98.00;;;;;;5072231;28;20844;-63
2020/12/03 05:16:36;;;;;;;2.47;2.10;;;1.40;98.00;;;;;;5073895;28;20505;-63
2020/12/03 05:19:12;;;;;;;5.43;1.77;;;1.40;98.00;;;;;;5072484;28;20864;-63
2020/12/03 05:21:38;;;;;;;1.50;1.37;;;1.30;98.00;;;;;;5073658;28;20519;-64
2020/12/03 05:24:05;;;;;;;2.80;2.40;;;1.20;98.00;;;;;;5072144;28;20451;-63
2020/12/03 05:26:32;;;;;;;3.87;1.63;;;1.30;98.00;;;;;;5073524;28;20486;-63
2020/12/03 05:29:02;;;;;;;1.67;1.53;;;1.20;98.00;;;;;;5072194;28;20458;-63
2020/12/03 05:31:33;;;;;;;1.20;1.07;;;1.10;98.00;;;;;;5073640;28;20460;-63
2020/12/03 05:34:06;;;;;;;3.30;1.20;;;1.00;98.00;;;;;;5070532;28;20458;-62
2020/12/03 05:36:34;;;;;;;1.30;1.30;;;1.10;98.00;;;;;;5073427;28;20538;-63
2020/12/03 05:39:04;;;;;;;2.17;2.00;;;1.30;98.00;;;;;;5071795;28;20517;-63
2020/12/03 05:41:36;;;;;;;1.20;1.10;;;1.30;98.00;;;;;;5073423;28;20454;-63
2020/12/03 05:44:19;;;;;;;1.20;1.17;;;1.30;98.00;;;;;;5071358;28;20540;-63
2020/12/03 05:46:50;;;;;;;1.77;1.73;;;1.40;98.00;;;;;;5073265;28;21073;-63
2020/12/03 05:49:20;;;;;;;1.30;1.17;;;1.40;98.00;;;;;;5070242;28;20463;-63
2020/12/03 05:52:03;;;;;;;1.40;1.37;;;1.40;98.00;;;;;;5073178;28;20538;-63
2020/12/03 05:54:29;;;;;;;2.37;2.13;;;1.40;98.00;;;;;;5071483;28;20468;-63
2020/12/03 05:56:58;;;;;;;1.40;1.13;;;1.30;98.00;;;;;;5072840;28;20536;-64
2020/12/03 05:59:25;;;;;;;1.30;1.20;;;1.30;98.00;;;;;;5071190;28;20463;-64
2020/12/03 06:02:04;;;;;;;1.50;1.30;;;1.40;98.00;;;;;;5072866;28;21166;-62
2020/12/03 06:04:39;;;;;;;1.73;1.30;;;1.40;98.00;;;;;;5071281;28;20513;-64
2020/12/03 06:07:20;;;;;;;1.20;0.90;;;1.60;98.00;;;;;;5072241;28;20486;-63
2020/12/03 06:10:11;;;;;;;1.57;1.47;;;1.50;98.00;;;;;;5070425;28;20487;-64
2020/12/03 06:12:53;;;;;;;1.20;1.10;;;1.50;98.00;;;;;;5071904;28;20450;-63
2020/12/03 06:15:33;;;;;;;3.20;2.03;;;1.70;98.00;;;;;;5071993;28;20447;-63
2020/12/03 06:18:35;;;;;;;1.20;1.00;;;1.60;98.00;;;;;;5070401;28;20452;-63
2020/12/03 06:21:17;;;;;;;1.20;1.00;;;1.40;98.00;;;;;;5072542;28;20521;-63
2020/12/03 06:23:54;;;;;;;1.33;1.10;;;1.40;98.00;;;;;;5071079;28;20455;-63
2020/12/03 06:26:33;;;;;;;1.20;1.10;;;1.40;98.00;;;;;;5072338;28;20484;-63
2020/12/03 06:29:33;;;;;;;1.20;1.10;;;1.50;98.00;;;;;;5070771;28;20517;-63
2020/12/03 06:32:42;;;;;;;1.57;1.50;;;1.60;98.00;;;;;;5069976;28;20468;-63
2020/12/03 06:35:21;;;;;;;2.60;1.53;;;1.40;98.00;;;;;;5070995;28;20543;-63
2020/12/03 06:37:55;;;;;;;1.20;1.20;;;1.30;98.00;;;;;;5072624;28;20853;-63
2020/12/03 06:40:25;;;;;;;4.43;1.47;;;1.30;98.00;;;;;;5070171;28;21057;-63
2020/12/03 06:42:56;;;;;;;1.20;1.20;;;1.30;98.00;;;;;;5071799;28;20452;-63
2020/12/03 06:45:28;;;;;;;3.47;2.47;;;1.40;98.00;;;;;;5070413;28;20455;-63
2020/12/03 06:48:26;;;;;;;1.60;1.43;;;1.40;98.00;;;;;;5072150;28;20485;-64
2020/12/03 06:51:27;;;;;;;1.47;1.40;;;1.50;98.00;;;;;;5072169;28;20451;-63
2020/12/03 06:54:38;;;;;;;3.20;1.83;;;1.50;98.00;;;;;;5070538;28;20487;-63
2020/12/03 06:57:56;;;;;;;3.63;3.07;;;1.60;98.00;;;;;;5071714;28;20472;-63
2020/12/03 07:00:58;;;;;;;2.60;2.03;;;1.70;98.00;;;;;;5064811;28;20456;-63
2020/12/03 07:04:04;;;;;;;1.40;1.30;;;1.40;98.00;;;;;;5040613;28;20447;-63
2020/12/03 07:07:04;;;;;;;2.07;1.97;;;1.30;98.00;;;;;;5053963;28;20478;-63
2020/12/03 07:10:07;;;;;;;1.33;1.27;;;1.30;98.00;;;;;;5070121;28;20451;-64
2020/12/03 07:13:24;;;;;;;1.10;1.07;;;1.60;98.00;;;;;;5071567;28;20454;-62
2020/12/03 07:16:21;;;;;;;3.67;1.83;;;1.70;98.00;;;;;;5007187;28;20453;-63
2020/12/03 07:19:29;;;;;;;1.20;1.00;;;1.70;98.00;;;;;;5007059;28;20859;-63
2020/12/03 07:22:08;;;;;;;1.60;1.60;;;1.50;98.00;;;;;;5071811;28;20458;-63
2020/12/03 07:24:37;;;;;;;1.90;1.27;;;1.30;98.00;;;;;;5069856;28;20502;-63
2020/12/03 07:27:57;;;;;;;3.00;2.20;;;1.30;98.00;;;;;;5071569;28;20839;-63
2020/12/03 07:30:46;;;;;;;1.20;1.10;;;1.30;98.00;;;;;;5053763;28;20791;-63
2020/12/03 07:33:35;;;;;;;1.13;1.03;;;1.20;98.00;;;;;;5071510;28;20455;-64
2020/12/03 07:36:31;;;;;;;1.87;1.40;;;1.30;98.00;;;;;;5070131;28;20457;-64
2020/12/03 07:39:03;;;;;;;1.73;1.67;;;1.40;98.00;;;;;;5068662;28;20469;-63
2020/12/03 07:41:34;;;;;;;1.67;1.40;;;1.50;98.00;;;;;;5071441;28;20500;-63
2020/12/03 07:44:07;;;;;;;1.90;1.30;;;1.40;98.00;;;;;;5069683;28;20941;-64
2020/12/03 07:46:38;;;;;;;2.60;1.80;;;1.50;98.00;;;;;;5069700;28;20483;-63
2020/12/03 07:49:05;;;;;;;1.30;1.20;;;1.60;98.00;;;;;;5069316;28;20865;-63
2020/12/03 07:51:33;;;;;;;1.43;1.40;;;1.50;98.00;;;;;;5070708;28;20466;-63
2020/12/03 07:54:23;;;;;;;1.20;1.00;;;1.50;98.00;;;;;;5070325;28;20450;-64
2020/12/03 07:56:51;;;;;;;1.87;1.83;;;1.50;98.00;;;;;;5070663;28;20887;-66
2020/12/03 07:59:37;;;;;;;2.63;1.37;;;1.60;98.00;;;;;;5068910;28;20930;-65
2020/12/03 08:02:25;;;;;;;1.37;1.37;;;3.50;98.00;;;;;;5070630;28;20453;-63
2020/12/03 08:04:52;;;;;;;2.07;1.70;;;5.20;98.00;;;;;;5071103;28;20536;-63
2020/12/03 08:07:38;;;;;;;1.80;1.70;;;5.60;98.00;;;;;;5088276;28;20496;-62
2020/12/03 08:10:36;;;;;;;2.03;1.77;;;5.40;98.00;;;;;;5087240;28;20566;-63
2020/12/03 08:13:14;;;;;;;2.50;2.20;;;4.80;98.00;;;;;;5088555;28;20851;-63
2020/12/03 08:15:42;;;;;;;1.20;1.10;;;4.10;98.00;;;;;;5081980;28;20463;-62
2020/12/03 08:18:41;;;;;;;1.83;1.40;;;3.40;98.00;;;;;;5087995;28;20510;-63
2020/12/03 08:21:08;;;;;;;1.97;1.87;;;3.20;98.00;;;;;;5086504;28;20456;-63
2020/12/03 08:23:34;;;;;;;1.43;1.30;;;3.10;98.00;;;;;;5088161;28;20448;-65
2020/12/03 08:26:02;;;;;;;3.00;1.30;;;2.90;98.00;;;;;;5084392;28;20495;-63
2020/12/03 08:28:31;;;;;;;2.23;1.50;;;2.90;98.00;;;;;;5085960;28;20521;-63
2020/12/03 08:30:57;;;;;;;1.40;1.30;;;2.80;98.00;;;;;;5090687;28;20931;-62
2020/12/03 08:33:34;;;;;;;1.30;1.10;;;2.90;98.00;;;;;;5091603;28;21003;-63
2020/12/03 08:36:02;;;;;;;1.50;1.43;;;3.00;98.00;;;;;;5087937;28;20455;-63
2020/12/03 08:38:33;;;;;;;2.37;1.90;;;3.20;98.00;;;;;;5092427;28;20570;-62
2020/12/03 08:41:03;;;;;;;1.20;1.10;;;3.20;98.00;;;;;;5090593;28;20463;-62
2020/12/03 08:43:32;;;;;;;2.33;1.53;;;3.30;98.00;;;;;;5093029;28;21093;-64
2020/12/03 08:46:03;;;;;;;1.30;1.30;;;3.30;98.00;;;;;;5092340;28;20511;-63
2020/12/03 08:48:35;;;;;;;1.20;1.00;;;3.30;98.00;;;;;;5094196;28;20455;-62
2020/12/03 08:51:05;;;;;;;1.20;1.10;;;3.20;98.00;;;;;;5092827;28;20459;-62
2020/12/03 08:53:33;;;;;;;1.67;1.50;;;3.20;98.00;;;;;;5093799;28;20550;-62
2020/12/03 08:56:26;;;;;;;2.73;2.53;;;3.30;98.00;;;;;;5092276;28;21000;-62
2020/12/03 08:59:02;;;;;;;1.20;1.00;;;3.30;98.00;;;;;;5093893;28;20456;-61
2020/12/03 09:01:31;;;;;;;2.70;1.73;;;3.20;98.00;;;;;;5092029;28;20448;-61
2020/12/03 09:04:01;;;;;;;1.50;1.40;;;3.20;98.00;;;;;;5091854;28;20531;-61
2020/12/03 09:06:30;;;;;;;2.10;1.73;;;3.20;98.00;;;;;;5092020;28;20491;-61
2020/12/03 09:08:57;;;;;;;1.20;1.00;;;3.30;98.00;;;;;;5093666;28;20452;-61
2020/12/03 09:11:25;;;;;;;1.20;1.00;;;3.30;98.00;;;;;;5092252;28;20459;-61
2020/12/03 09:13:55;;;;;;;1.20;1.10;;;3.30;98.00;;;;;;5093384;28;20452;-61
2020/12/03 09:16:25;;;;;;;1.43;1.33;;;3.30;98.00;;;;;;5092152;28;20915;-61
2020/12/03 09:18:52;;;;;;;1.73;1.40;;;3.30;98.00;;;;;;5093887;28;20459;-62
2020/12/03 09:21:26;;;;;;;2.33;1.93;;;3.30;98.00;;;;;;5092253;28;20527;-61
2020/12/03 09:23:55;;;;;;;3.33;1.60;;;3.30;98.00;;;;;;5093918;28;20451;-62
2020/12/03 09:26:31;;;;;;;1.23;1.10;;;3.30;98.00;;;;;;5091456;28;20493;-61
2020/12/03 09:28:58;;;;;;;2.93;2.53;;;3.40;98.00;;;;;;5093289;28;20535;-61
2020/12/03 09:31:25;;;;;;;1.47;1.40;;;3.40;98.00;;;;;;5092128;28;20461;-61
2020/12/03 09:33:54;;;;;;;2.30;2.10;;;3.40;98.00;;;;;;5092437;28;21022;-62
2020/12/03 09:36:21;;;;;;;2.50;1.40;;;3.40;98.00;;;;;;5091994;28;20467;-61
2020/12/03 09:38:50;;;;;;;1.37;1.27;;;3.40;98.00;;;;;;5093611;28;20516;-61
2020/12/03 09:41:22;;;;;;;2.67;2.57;;;3.40;98.00;;;;;;5090733;28;20466;-62
2020/12/03 09:43:51;;;;;;;1.30;1.10;;;3.40;98.00;;;;;;5093369;28;20467;-61
2020/12/03 09:46:23;;;;;;;1.20;0.90;;;3.30;98.00;;;;;;5091377;28;21085;-62
2020/12/03 09:48:51;;;;;;;1.93;1.40;;;3.30;98.00;;;;;;5093367;28;20938;-62
2020/12/03 09:51:20;;;;;;;2.10;1.53;;;3.40;98.00;;;;;;5091381;28;20501;-63
2020/12/03 09:53:49;;;;;;;1.40;1.30;;;3.40;98.00;;;;;;5093156;28;20451;-61
2020/12/03 09:56:15;;;;;;;1.83;1.83;;;3.30;98.00;;;;;;5091531;28;20460;-61
2020/12/03 09:58:42;;;;;;;1.47;1.30;;;3.30;98.00;;;;;;5092937;28;20491;-61
2020/12/03 10:01:10;;;;;;;1.33;1.20;;;3.30;98.00;;;;;;5091521;28;20512;-63
2020/12/03 10:04:22;;;;;;;1.40;1.33;;;3.40;98.00;;;;;;5092846;28;20880;-60
2020/12/03 10:06:59;;;;;;;1.70;1.30;;;3.40;98.00;;;;;;5091119;28;20483;-60
2020/12/03 10:10:07;;;;;;;1.40;1.40;;;3.50;98.00;;;;;;5092907;28;20488;-61
2020/12/03 10:13:03;;;;;;;1.60;1.47;;;3.50;98.00;;;;;;5060838;28;20544;-61
2020/12/03 10:16:02;;;;;;;2.13;1.53;;;3.50;98.00;;;;;;5092787;28;20455;-60
2020/12/03 10:18:38;;;;;;;1.50;1.20;;;3.40;98.00;;;;;;5092515;28;20446;-61
2020/12/03 10:21:06;;;;;;;1.20;1.00;;;3.40;98.00;;;;;;5091117;28;20459;-61
2020/12/03 10:23:45;;;;;;;1.40;1.37;;;3.50;98.00;;;;;;5092604;28;20999;-62
2020/12/03 10:26:21;;;;;;;1.43;1.40;;;3.60;98.00;;;;;;5090750;28;20869;-61
2020/12/03 10:28:53;;;;;;;2.13;1.83;;;3.70;98.00;;;;;;5092451;28;20452;-61
2020/12/03 10:31:21;;;;;;;1.30;1.30;;;3.80;98.00;;;;;;5090749;28;21350;-60
2020/12/03 10:33:49;;;;;;;1.20;1.10;;;3.80;98.00;;;;;;5092344;28;20448;-61
2020/12/03 10:36:31;;;;;;;1.20;1.10;;;3.70;98.00;;;;;;5090942;28;20444;-61
2020/12/03 10:38:59;;;;;;;1.20;0.90;;;3.70;98.00;;;;;;5092540;28;20509;-61
2020/12/03 10:41:38;;;;;;;1.73;1.73;;;3.60;98.00;;;;;;5090618;28;20517;-62
2020/12/03 10:44:08;;;;;;;1.80;1.47;;;3.50;98.00;;;;;;5092255;28;20458;-61
2020/12/03 10:46:40;;;;;;;1.30;1.10;;;3.60;98.00;;;;;;5090378;28;20509;-61
2020/12/03 10:49:08;;;;;;;1.20;1.00;;;3.60;98.00;;;;;;5092206;28;20837;-61
2020/12/03 10:51:34;;;;;;;1.20;1.00;;;3.60;98.00;;;;;;5090178;28;20965;-61
2020/12/03 10:54:02;;;;;;;1.70;1.50;;;3.60;98.00;;;;;;5091983;28;20458;-61
2020/12/03 10:56:30;;;;;;;1.20;0.90;;;3.60;98.00;;;;;;5089833;28;20444;-61
2020/12/03 10:59:39;;;;;;;1.57;1.23;;;3.70;98.00;;;;;;5092032;28;20491;-61
2020/12/03 11:02:16;;;;;;;2.33;1.27;;;3.70;98.00;;;;;;5090246;28;20549;-61
2020/12/03 11:04:44;;;;;;;1.20;1.00;;;3.80;98.00;;;;;;5092288;28;20462;-61
2020/12/03 11:07:12;;;;;;;1.30;1.10;;;3.80;98.00;;;;;;5089383;28;20483;-61
2020/12/03 11:09:41;;;;;;;1.20;1.10;;;3.90;98.00;;;;;;5092132;28;20447;-61
2020/12/03 11:12:09;;;;;;;1.20;1.00;;;4.00;98.00;;;;;;5090550;28;20448;-62
2020/12/03 11:14:37;;;;;;;1.90;1.83;;;3.90;98.00;;;;;;5091948;28;20539;-61
2020/12/03 11:17:13;;;;;;;1.90;1.30;;;4.00;98.00;;;;;;5090195;28;20456;-61
2020/12/03 11:19:43;;;;;;;1.70;1.60;;;4.00;98.00;;;;;;5091994;28;20452;-60
2020/12/03 11:22:27;;;;;;;1.60;1.10;;;4.00;98.00;;;;;;5090395;28;20454;-62
2020/12/03 11:25:00;;;;;;;1.20;1.00;;;4.00;98.00;;;;;;5091900;28;20805;-61
2020/12/03 11:27:28;;;;;;;1.70;1.50;;;4.00;98.00;;;;;;5089751;28;20536;-62
2020/12/03 11:29:56;;;;;;;1.50;1.37;;;4.00;98.00;;;;;;5092038;28;20452;-61
2020/12/03 11:32:24;;;;;;;1.20;0.90;;;4.00;98.00;;;;;;5090002;28;20837;-62
2020/12/03 11:34:50;;;;;;;1.40;1.20;;;4.00;98.00;;;;;;5090949;28;20460;-61
2020/12/03 11:37:22;;;;;;;1.30;1.10;;;4.10;98.00;;;;;;5089802;28;20455;-62
2020/12/03 11:39:50;;;;;;;1.20;0.97;;;4.20;98.00;;;;;;5090793;28;20462;-61
2020/12/03 11:42:33;;;;;;;1.57;1.30;;;4.30;98.00;;;;;;5088386;28;20966;-61
2020/12/03 11:45:31;;;;;;;1.20;1.00;;;4.40;98.00;;;;;;5090859;28;20466;-61
2020/12/03 11:48:22;;;;;;;1.40;1.23;;;4.40;98.00;;;;;;5089615;28;20472;-62
2020/12/03 11:50:48;;;;;;;2.17;1.90;;;4.40;98.00;;;;;;5091038;28;20447;-61
2020/12/03 11:53:19;;;;;;;1.20;1.00;;;4.40;98.00;;;;;;5090003;28;20455;-62
2020/12/03 11:55:46;;;;;;;1.20;1.00;;;4.40;98.00;;;;;;5091108;28;20459;-60
2020/12/03 11:58:13;;;;;;;1.20;1.00;;;4.40;98.00;;;;;;5089897;28;20842;-61
2020/12/03 12:00:40;;;;;;;1.30;1.10;;;4.40;98.00;;;;;;5090753;28;20454;-62
2020/12/03 12:03:08;;;;;;;1.20;1.10;;;4.30;98.00;;;;;;5089711;28;20452;-61
2020/12/03 12:05:47;;;;;;;1.20;1.00;;;4.30;98.00;;;;;;5094601;28;20448;-61
2020/12/03 12:08:23;;;;;;;1.40;1.20;;;4.30;98.00;;;;;;5093514;28;20479;-62
2020/12/03 12:10:55;;;;;;;2.50;1.77;;;4.30;98.00;;;;;;5094523;28;20457;-61
2020/12/03 12:13:23;;;;;;;1.20;1.10;;;4.20;98.00;;;;;;5093412;28;20458;-61
2020/12/03 12:15:50;;;;;;;1.20;1.00;;;4.30;98.00;;;;;;5094355;28;20504;-61
2020/12/03 12:18:17;;;;;;;1.20;1.00;;;4.30;98.00;;;;;;5093331;28;20799;-61
2020/12/03 12:20:47;;;;;;;1.20;0.90;;;4.30;98.00;;;;;;5094362;28;20452;-61
2020/12/03 12:23:14;;;;;;;1.20;0.90;;;4.30;98.00;;;;;;5093365;28;20447;-61
2020/12/03 12:25:41;;;;;;;1.50;1.10;;;4.30;98.00;;;;;;5094253;28;20519;-61
2020/12/03 12:28:07;;;;;;;1.77;1.73;;;4.30;98.00;;;;;;5093080;28;20489;-61
2020/12/03 12:30:35;;;;;;;1.20;0.93;;;4.10;98.00;;;;;;5095049;28;20456;-62
2020/12/03 12:33:02;;;;;;;2.40;1.20;;;4.00;98.00;;;;;;5093595;28;20513;-61
2020/12/03 12:35:29;;;;;;;1.30;1.10;;;4.00;98.00;;;;;;5094864;28;20821;-61
2020/12/03 12:37:56;;;;;;;4.40;1.23;;;4.00;98.00;;;;;;5092627;28;20950;-61
2020/12/03 12:40:24;;;;;;;1.20;1.07;;;4.20;98.00;;;;;;5094039;28;20457;-61
2020/12/03 12:42:50;;;;;;;1.20;1.10;;;4.10;98.00;;;;;;5092731;28;20447;-62
2020/12/03 12:45:17;;;;;;;1.30;1.30;;;4.10;98.00;;;;;;5094105;28;20521;-61
2020/12/03 12:47:43;;;;;;;1.40;1.27;;;4.30;98.00;;;;;;5092780;28;20511;-62
2020/12/03 12:50:11;;;;;;;1.20;1.00;;;4.40;98.00;;;;;;5094073;28;20517;-61
2020/12/03 12:52:37;;;;;;;1.20;0.90;;;4.40;98.00;;;;;;5092639;28;20799;-61
2020/12/03 12:55:04;;;;;;;1.20;1.13;;;4.40;98.00;;;;;;5093803;28;20456;-62
2020/12/03 12:57:30;;;;;;;1.20;0.90;;;4.40;98.00;;;;;;5093681;28;20536;-62
2020/12/03 12:59:57;;;;;;;2.07;1.33;;;4.40;98.00;;;;;;5090818;28;20448;-62
2020/12/03 13:02:24;;;;;;;1.20;1.00;;;4.40;98.00;;;;;;5092042;28;20482;-62
2020/12/03 13:04:50;;;;;;;1.60;1.33;;;4.40;98.00;;;;;;5074188;28;20448;-62
2020/12/03 13:07:18;;;;;;;1.20;1.00;;;4.30;98.00;;;;;;5092706;28;20851;-63
2020/12/03 13:09:46;;;;;;;3.93;1.10;;;4.30;98.00;;;;;;5091962;28;20448;-62
2020/12/03 13:12:12;;;;;;;1.20;0.90;;;4.20;98.00;;;;;;5091744;28;20445;-61
2020/12/03 13:14:40;;;;;;;1.97;1.30;;;4.20;98.00;;;;;;5091339;28;20455;-64
2020/12/03 13:17:06;;;;;;;1.90;1.40;;;4.40;98.00;;;;;;5089709;28;20459;-62
2020/12/03 13:19:34;;;;;;;2.30;1.90;;;4.30;98.00;;;;;;5091770;28;20873;-60
2020/12/03 13:22:00;;;;;;;1.50;1.07;;;4.10;98.00;;;;;;5091570;28;20969;-61
2020/12/03 13:24:30;;;;;;;1.57;1.40;;;4.10;98.00;;;;;;5092058;28;20888;-61
2020/12/03 13:26:58;;;;;;;1.20;1.00;;;4.00;98.00;;;;;;5092462;28;20929;-60